createdAt,value
2022-12-06T00:03:10.293Z,100764.47
2022-12-06T00:08:11.774Z,100756.13
2022-12-06T00:13:13.277Z,100759.09
2022-12-06T00:18:14.755Z,100757.69
2022-12-06T00:23:16.244Z,100766.13
2022-12-06T00:28:17.681Z,100760.25
2022-12-06T00:33:19.129Z,100755.38
2022-12-06T00:38:20.586Z,100755.91
2022-12-06T00:43:22.085Z,100745.44
2022-12-06T00:48:23.635Z,100746.88
2022-12-06T00:53:26.036Z,100745.78
2022-12-06T00:58:27.835Z,100746.47
2022-12-06T01:03:34.864Z,100743.78
2022-12-06T01:08:37.475Z,100746.53
2022-12-06T01:13:39.125Z,100747.38
2022-12-06T01:18:42.514Z,100746.03
2022-12-06T01:23:45.292Z,100740.38
2022-12-06T01:28:47.281Z,100741.47
2022-12-06T01:33:48.759Z,100744.59
2022-12-06T01:38:55.383Z,100757.63
2022-12-06T01:43:57.231Z,100757.63
2022-12-06T01:49:04.744Z,100754.38
2022-12-06T01:54:11.088Z,100745.59
2022-12-06T01:59:12.916Z,100753.13
2022-12-06T02:04:16.240Z,100750.31
2022-12-06T02:09:18.605Z,100750.06
2022-12-06T02:14:30.180Z,100748.44
2022-12-06T02:20:09.148Z,100748.13
2022-12-06T02:25:43.506Z,100743.56
2022-12-06T02:30:51.754Z,100739.69
2022-12-06T02:36:18.350Z,100735.56
2022-12-06T02:41:27.191Z,100734.97
2022-12-06T02:46:33.010Z,100720.97
2022-12-06T02:51:35.983Z,100712.50
2022-12-06T02:56:37.529Z,100719.84
2022-12-06T03:01:44.954Z,100718.66
2022-12-06T03:06:46.448Z,100721.44
2022-12-06T03:12:03.496Z,100721.84
2022-12-06T03:17:16.929Z,100717.47
2022-12-06T03:22:29.688Z,100717.47
2022-12-06T03:27:32.123Z,100707.50
2022-12-06T03:32:35.840Z,100708.41
2022-12-06T03:37:40.840Z,100714.53
2022-12-06T03:42:42.880Z,100710.31
2022-12-06T03:47:50.692Z,100703.81
2022-12-06T03:52:52.869Z,100700.31
2022-12-06T03:57:54.368Z,100706.25
2022-12-06T04:02:55.836Z,100698.81
2022-12-06T04:07:57.474Z,100700.31
2022-12-06T04:12:59.025Z,100698.88
2022-12-06T04:18:00.862Z,100689.38
2022-12-06T04:23:02.309Z,100694.28
2022-12-06T04:28:04.230Z,100690.16
2022-12-06T04:33:05.666Z,100693.84
2022-12-06T04:38:07.085Z,100690.91
2022-12-06T04:43:10.539Z,100683.56
2022-12-06T04:48:12.002Z,100692.88
2022-12-06T04:53:13.400Z,100684.25
2022-12-06T04:58:15.679Z,100682.94
2022-12-06T05:03:17.324Z,100678.69
2022-12-06T05:08:18.842Z,100679.28
2022-12-06T05:13:20.888Z,100678.69
2022-12-06T05:18:23.328Z,100677.50
2022-12-06T05:23:24.747Z,100669.72
2022-12-06T05:28:26.540Z,100679.28
2022-12-06T05:33:28.341Z,100680.47
2022-12-06T05:38:32.844Z,100687.09
2022-12-06T05:43:34.808Z,100687.88
2022-12-06T05:48:36.310Z,100690.81
2022-12-06T05:53:38.432Z,100695.19
2022-12-06T05:58:40.644Z,100700.31
2022-12-06T06:03:47.211Z,100697.88
2022-12-06T06:08:49.508Z,100698.34
2022-12-06T06:13:51.162Z,100694.81
2022-12-06T06:18:52.682Z,100694.53
2022-12-06T06:23:56.998Z,100694.25
2022-12-06T06:28:58.517Z,100695.59
2022-12-06T06:34:00.142Z,100696.44
2022-12-06T06:39:01.657Z,100704.28
2022-12-06T06:44:03.592Z,100694.25
2022-12-06T06:49:05.337Z,100704.91
2022-12-06T06:54:06.808Z,100703.50
2022-12-06T06:59:08.245Z,100711.44
2022-12-06T07:04:09.697Z,100704.00
2022-12-06T07:09:11.421Z,100712.03
2022-12-06T07:14:13.771Z,100710.91
2022-12-06T07:19:15.222Z,100712.34
2022-12-06T07:24:16.977Z,100707.94
2022-12-06T07:29:18.512Z,100710.56
2022-12-06T07:34:20.076Z,100714.47
2022-12-06T07:39:21.698Z,100709.72
2022-12-06T07:44:23.191Z,100710.66
2022-12-06T07:49:25.773Z,100711.06
2022-12-06T07:54:27.351Z,100713.75
2022-12-06T07:59:28.812Z,100719.69
2022-12-06T08:04:30.397Z,100706.81
2022-12-06T08:09:32.082Z,100702.63
2022-12-06T08:14:33.563Z,100706.75
2022-12-06T08:19:35.037Z,100709.72
2022-12-06T08:24:36.511Z,100700.28
2022-12-06T08:29:38.066Z,100697.50
2022-12-06T08:34:39.614Z,100705.81
2022-12-06T08:39:41.173Z,100707.19
2022-12-06T08:44:42.722Z,100716.31
2022-12-06T08:49:44.203Z,100718.09
2022-12-06T08:54:45.672Z,100722.50
2022-12-06T08:59:47.088Z,100721.94
2022-12-06T09:04:51.091Z,100722.22
2022-12-06T09:09:55.517Z,100732.34
2022-12-06T09:14:57.028Z,100739.97
2022-12-06T09:20:03.773Z,100745.84
2022-12-06T09:25:07.600Z,100745.84
2022-12-06T09:30:09.822Z,100747.06
2022-12-06T09:35:15.245Z,100747.94
2022-12-06T09:40:29.062Z,100751.25
2022-12-06T09:46:11.342Z,100758.56
2022-12-06T09:51:31.723Z,100759.72
2022-12-06T09:56:53.566Z,100758.94
2022-12-06T10:02:15.354Z,100755.66
2022-12-06T10:07:39.417Z,100754.53
2022-12-06T10:13:02.925Z,100750.25
2022-12-06T10:18:24.108Z,100745.06
2022-12-06T10:23:25.467Z,100746.81
2022-12-06T10:29:06.544Z,100742.84
2022-12-06T10:34:20.177Z,100738.72
2022-12-06T10:39:25.628Z,100735.47
2022-12-06T10:44:44.924Z,100730.47
2022-12-06T10:50:07.923Z,100731.81
2022-12-06T10:55:09.293Z,100732.94
2022-12-06T11:00:16.401Z,100727.16
2022-12-06T11:05:34.393Z,100719.53
2022-12-06T11:10:38.416Z,100728.06
2022-12-06T11:15:42.405Z,100732.72
2022-12-06T11:21:04.932Z,100729.38
2022-12-06T11:26:26.317Z,100734.91
2022-12-06T11:31:35.559Z,100727.69
2022-12-06T11:36:37.603Z,100724.25
2022-12-06T11:41:39.133Z,100716.38
2022-12-06T11:46:40.979Z,100714.66
2022-12-06T11:51:42.553Z,100714.00
2022-12-06T11:56:44.274Z,100710.94
2022-12-06T12:01:48.632Z,100704.09
2022-12-06T12:06:58.934Z,100699.03
2022-12-06T12:12:15.984Z,100693.91
2022-12-06T12:17:21.576Z,100695.53
2022-12-06T12:22:37.956Z,100704.56
2022-12-06T12:27:39.367Z,100696.81
2022-12-06T12:32:42.091Z,100693.25
2022-12-06T12:37:43.951Z,100694.88
2022-12-06T12:42:46.204Z,100690.72
2022-12-06T12:48:02.399Z,100688.97
2022-12-06T12:53:03.967Z,100690.84
2022-12-06T12:58:10.560Z,100685.41
2022-12-06T13:03:42.951Z,100690.38
2022-12-06T13:08:39.456Z,100693.72
2022-12-06T13:13:44.976Z,100688.56
2022-12-06T13:18:54.379Z,100686.91
2022-12-06T13:24:07.530Z,100684.94
2022-12-06T13:29:27.906Z,100681.91
2022-12-06T13:34:43.687Z,100683.72
2022-12-06T13:39:49.007Z,100682.56
2022-12-06T13:44:50.528Z,100684.47
2022-12-06T13:49:52.838Z,100689.34
2022-12-06T13:54:54.303Z,100690.66
2022-12-06T13:59:55.762Z,100690.28
2022-12-06T14:04:57.237Z,100692.31
2022-12-06T14:10:04.768Z,100686.53
2022-12-06T14:15:06.725Z,100683.53
2022-12-06T14:20:27.158Z,100687.09
2022-12-06T14:25:29.915Z,100687.94
2022-12-06T14:30:31.584Z,100687.09
2022-12-06T14:35:35.165Z,100690.84
2022-12-06T14:40:47.508Z,100688.97
2022-12-06T14:45:50.620Z,100686.72
2022-12-06T14:50:59.495Z,100685.31
2022-12-06T14:56:06.911Z,100694.41
2022-12-06T15:01:25.980Z,100687.09
2022-12-06T15:06:30.642Z,100685.19
2022-12-06T15:11:37.606Z,100678.19
2022-12-06T15:16:40.247Z,100679.59
2022-12-06T15:21:42.053Z,100685.03
2022-12-06T15:26:43.687Z,100690.19
2022-12-06T15:31:51.301Z,100683.63
2022-12-06T15:37:15.258Z,100676.28
2022-12-06T15:42:21.261Z,100676.09
2022-12-06T15:47:22.666Z,100679.38
2022-12-06T15:52:24.181Z,100683.88
2022-12-06T15:57:25.639Z,100688.34
2022-12-06T16:02:27.113Z,100689.47
2022-12-06T16:07:28.596Z,100687.81
2022-12-06T16:12:30.075Z,100689.31
2022-12-06T16:17:31.492Z,100688.56
2022-12-06T16:22:32.992Z,100681.81
2022-12-06T16:27:34.573Z,100674.59
2022-12-06T16:32:36.004Z,100672.44
2022-12-06T16:37:37.616Z,100682.00
2022-12-06T16:42:39.076Z,100670.56
2022-12-06T16:47:40.786Z,100674.50
2022-12-06T16:52:42.234Z,100670.38
2022-12-06T16:57:43.787Z,100675.44
2022-12-06T17:02:45.223Z,100674.22
2022-12-06T17:07:46.797Z,100679.25
2022-12-06T17:12:49.203Z,100669.97
2022-12-06T17:17:50.680Z,100670.38
2022-12-06T17:22:52.112Z,100669.97
2022-12-06T17:27:53.592Z,100673.94
2022-12-06T17:32:55.061Z,100682.75
2022-12-06T17:37:56.556Z,100680.56
2022-12-06T17:42:58.030Z,100681.50
2022-12-06T17:47:59.540Z,100683.66
2022-12-06T17:53:01.030Z,100682.31
2022-12-06T17:58:02.579Z,100680.06
2022-12-06T18:03:04.327Z,100684.84
2022-12-06T18:08:05.902Z,100681.28
2022-12-06T18:13:07.349Z,100690.03
2022-12-06T18:18:08.912Z,100688.47
2022-12-06T18:23:10.350Z,100687.84
2022-12-06T18:28:11.857Z,100690.78
2022-12-06T18:33:17.629Z,100693.78
2022-12-06T18:38:22.132Z,100690.69
2022-12-06T18:43:23.719Z,100691.22
2022-12-06T18:48:25.183Z,100688.78
2022-12-06T18:53:26.610Z,100690.56
2022-12-06T18:58:28.219Z,100692.44
2022-12-06T19:03:29.660Z,100686.44
2022-12-06T19:08:31.059Z,100682.16
2022-12-06T19:13:32.642Z,100679.25
2022-12-06T19:18:34.345Z,100682.97
2022-12-06T19:23:35.821Z,100684.19
2022-12-06T19:28:39.407Z,100678.84
2022-12-06T19:33:43.255Z,100682.97
2022-12-06T19:38:45.267Z,100683.06
2022-12-06T19:43:46.731Z,100693.38
2022-12-06T19:48:48.961Z,100692.78
2022-12-06T19:53:50.372Z,100696.53
2022-12-06T19:58:51.856Z,100700.56
2022-12-06T20:03:53.952Z,100694.69
2022-12-06T20:08:59.488Z,100700.38
2022-12-06T20:14:06.937Z,100693.09
2022-12-06T20:19:08.894Z,100688.31
2022-12-06T20:24:13.190Z,100682.84
2022-12-06T20:29:15.333Z,100691.28
2022-12-06T20:34:17.444Z,100673.47
2022-12-06T20:39:21.899Z,100678.72
2022-12-06T20:44:23.395Z,100676.78
2022-12-06T20:49:25.009Z,100673.47
2022-12-06T20:54:26.430Z,100668.69
2022-12-06T20:59:27.976Z,100658.41
2022-12-06T21:04:29.447Z,100670.59
2022-12-06T21:09:31.148Z,100666.88
2022-12-06T21:14:32.590Z,100666.94
2022-12-06T21:19:34.475Z,100660.06
2022-12-06T21:24:35.970Z,100659.97
2022-12-06T21:29:37.417Z,100650.69
2022-12-06T21:34:44.508Z,100655.13
2022-12-06T21:39:47.815Z,100658.94
2022-12-06T21:44:49.226Z,100661.53
2022-12-06T21:49:50.874Z,100658.09
2022-12-06T21:54:52.359Z,100654.75
2022-12-06T21:59:53.808Z,100648.94
2022-12-06T22:04:55.245Z,100653.09
2022-12-06T22:09:56.725Z,100656.53
2022-12-06T22:14:58.148Z,100652.09
2022-12-06T22:19:59.932Z,100653.91
2022-12-06T22:25:02.203Z,100659.09
2022-12-06T22:30:04.314Z,100669.97
2022-12-06T22:35:06.562Z,100661.56
2022-12-06T22:40:08.788Z,100670.19
2022-12-06T22:45:10.836Z,100664.47
2022-12-06T22:50:13.061Z,100660.97
2022-12-06T22:55:14.588Z,100664.47
2022-12-06T23:00:16.147Z,100661.91
2022-12-06T23:05:17.652Z,100658.56
2022-12-06T23:10:19.230Z,100660.13
2022-12-06T23:15:20.684Z,100665.19
2022-12-06T23:20:22.152Z,100660.19
2022-12-06T23:25:23.613Z,100656.63
2022-12-06T23:30:25.059Z,100656.84
2022-12-06T23:35:27.130Z,100660.63
2022-12-06T23:40:28.618Z,100657.91
2022-12-06T23:45:30.174Z,100663.78
2022-12-06T23:50:31.672Z,100661.03
2022-12-06T23:55:35.531Z,100661.53
